createdAt,value
2018-11-06T00:00:54.927Z,94400.19
2018-11-06T00:03:29.430Z,94384.09
2018-11-06T00:05:58.967Z,94382.37
2018-11-06T00:08:28.228Z,94382.37
2018-11-06T00:10:57.488Z,94380.14
2018-11-06T00:13:26.848Z,94383.16
2018-11-06T00:15:56.110Z,94377.84
2018-11-06T00:18:25.435Z,94378.55
2018-11-06T00:20:54.703Z,94377.61
2018-11-06T00:23:23.955Z,94378.08
2018-11-06T00:25:53.222Z,94381.86
2018-11-06T00:28:22.612Z,94380.78
2018-11-06T00:30:51.915Z,94390.02
2018-11-06T00:33:21.179Z,94385.25
2018-11-06T00:35:50.427Z,94376.19
2018-11-06T00:38:19.667Z,94370.00
2018-11-06T00:40:48.958Z,94383.06
2018-11-06T00:43:18.275Z,94384.17
2018-11-06T00:45:47.558Z,94388.54
2018-11-06T00:48:16.812Z,94390.25
2018-11-06T00:50:46.067Z,94382.38
2018-11-06T00:55:51.147Z,94386.93
2018-11-06T00:58:20.423Z,94386.93
2018-11-06T01:00:49.686Z,94379.55
2018-11-06T01:03:18.963Z,94376.81
2018-11-06T01:05:48.218Z,94390.09
2018-11-06T01:08:17.491Z,94374.31
2018-11-06T01:10:46.826Z,94373.14
2018-11-06T01:13:16.078Z,94372.67
2018-11-06T01:15:45.366Z,94374.69
2018-11-06T01:18:14.571Z,94360.37
2018-11-06T01:20:43.779Z,94369.23
2018-11-06T01:23:12.995Z,94376.09
2018-11-06T01:25:42.223Z,94364.77
2018-11-06T01:28:11.619Z,94366.55
2018-11-06T01:30:40.854Z,94358.58
2018-11-06T01:33:10.117Z,94362.11
2018-11-06T01:35:39.392Z,94360.41
2018-11-06T01:38:08.643Z,94355.45
2018-11-06T01:40:37.899Z,94353.61
2018-11-06T01:43:07.842Z,94351.62
2018-11-06T01:45:37.098Z,94361.23
2018-11-06T01:48:06.626Z,94360.66
2018-11-06T01:51:06.516Z,94349.95
2018-11-06T01:53:38.629Z,94357.17
2018-11-06T01:56:07.928Z,94352.82
2018-11-06T01:58:37.310Z,94356.95
2018-11-06T02:01:06.747Z,94350.04
2018-11-06T02:03:35.995Z,94344.94
2018-11-06T02:06:05.506Z,94345.84
2018-11-06T02:08:34.766Z,94341.16
2018-11-06T02:11:04.018Z,94345.71
2018-11-06T02:13:33.266Z,94338.13
2018-11-06T02:16:02.518Z,94337.92
2018-11-06T02:18:31.759Z,94335.03
2018-11-06T02:21:01.030Z,94342.58
2018-11-06T02:23:30.293Z,94343.47
2018-11-06T02:25:59.551Z,94352.34
2018-11-06T02:28:28.794Z,94341.35
2018-11-06T02:30:58.046Z,94343.77
2018-11-06T02:33:28.576Z,94357.73
2018-11-06T02:35:57.837Z,94355.89
2018-11-06T02:38:27.100Z,94353.52
2018-11-06T02:40:56.372Z,94347.17
2018-11-06T02:43:25.610Z,94339.42
2018-11-06T02:45:54.868Z,94355.20
2018-11-06T02:48:24.168Z,94346.63
2018-11-06T02:50:53.415Z,94348.16
2018-11-06T02:53:22.765Z,94342.47
2018-11-06T02:55:52.077Z,94345.07
2018-11-06T02:58:21.259Z,94342.09
2018-11-06T03:00:50.531Z,94338.64
2018-11-06T03:03:19.791Z,94341.03
2018-11-06T03:06:19.430Z,94340.76
2018-11-06T03:08:48.682Z,94342.12
2018-11-06T03:11:17.942Z,94345.58
2018-11-06T03:13:47.126Z,94341.86
2018-11-06T03:16:16.315Z,94348.80
2018-11-06T03:18:45.515Z,94342.88
2018-11-06T03:21:14.706Z,94347.15
2018-11-06T03:23:43.933Z,94359.69
2018-11-06T03:26:13.075Z,94353.63
2018-11-06T03:28:42.259Z,94358.59
2018-11-06T03:31:11.454Z,94347.27
2018-11-06T03:33:40.650Z,94355.46
2018-11-06T03:36:09.821Z,94354.64
2018-11-06T03:38:39.003Z,94348.64
2018-11-06T03:41:08.358Z,94349.34
2018-11-06T03:43:37.562Z,94354.79
2018-11-06T03:46:06.800Z,94347.50
2018-11-06T03:48:36.020Z,94346.62
2018-11-06T03:51:05.796Z,94341.38
2018-11-06T03:53:34.979Z,94335.73
2018-11-06T03:56:04.167Z,94336.20
2018-11-06T03:58:34.081Z,94342.86
2018-11-06T04:01:03.335Z,94351.17
2018-11-06T04:03:32.608Z,94357.78
2018-11-06T04:06:01.812Z,94348.09
2018-11-06T04:08:31.014Z,94346.55
2018-11-06T04:11:00.243Z,94350.86
2018-11-06T04:13:29.458Z,94358.69
2018-11-06T04:15:58.689Z,94337.69
2018-11-06T04:18:27.929Z,94335.06
2018-11-06T04:20:57.266Z,94341.33
2018-11-06T04:23:26.515Z,94336.34
2018-11-06T04:25:55.723Z,94336.07
2018-11-06T04:28:24.914Z,94329.60
2018-11-06T04:30:54.143Z,94332.07
2018-11-06T04:33:23.342Z,94336.63
2018-11-06T04:35:52.547Z,94328.13
2018-11-06T04:38:21.743Z,94323.06
2018-11-06T04:40:50.959Z,94322.92
2018-11-06T04:43:20.199Z,94319.26
2018-11-06T04:45:50.455Z,94336.08
2018-11-06T04:48:19.654Z,94332.17
2018-11-06T04:50:48.830Z,94325.45
2018-11-06T04:53:18.032Z,94325.27
2018-11-06T04:55:47.220Z,94323.81
2018-11-06T04:58:16.435Z,94332.06
2018-11-06T05:00:52.391Z,94331.78
2018-11-06T05:03:21.619Z,94325.38
2018-11-06T05:05:50.807Z,94330.73
2018-11-06T05:08:20.028Z,94335.91
2018-11-06T05:10:49.235Z,94328.85
2018-11-06T05:13:18.619Z,94333.88
2018-11-06T05:15:47.795Z,94353.20
2018-11-06T05:18:17.001Z,94335.25
2018-11-06T05:20:46.219Z,94336.99
2018-11-06T05:23:15.411Z,94333.47
2018-11-06T05:25:44.631Z,94337.41
2018-11-06T05:28:13.847Z,94341.16
2018-11-06T05:30:43.031Z,94333.84
2018-11-06T05:33:12.247Z,94332.34
2018-11-06T05:35:41.455Z,94337.45
2018-11-06T05:38:10.662Z,94330.75
2018-11-06T05:40:59.616Z,94336.05
2018-11-06T05:43:28.800Z,94330.59
2018-11-06T05:45:58.001Z,94335.03
2018-11-06T05:48:27.202Z,94341.43
2018-11-06T05:50:56.401Z,94342.59
2018-11-06T05:53:25.609Z,94356.96
2018-11-06T05:55:54.786Z,94356.61
2018-11-06T05:58:23.995Z,94361.58
2018-11-06T06:00:53.199Z,94362.98
2018-11-06T06:03:22.412Z,94355.11
2018-11-06T06:05:51.624Z,94359.94
2018-11-06T06:08:20.822Z,94355.23
2018-11-06T06:10:50.321Z,94358.35
2018-11-06T06:13:19.600Z,94363.73
2018-11-06T06:15:48.789Z,94359.69
2018-11-06T06:18:18.013Z,94354.84
2018-11-06T06:20:47.233Z,94353.44
2018-11-06T06:23:16.674Z,94355.34
2018-11-06T06:25:45.863Z,94347.38
2018-11-06T06:28:15.119Z,94351.27
2018-11-06T06:30:44.298Z,94345.69
2018-11-06T06:33:14.731Z,94341.62
2018-11-06T06:35:43.922Z,94345.80
2018-11-06T06:38:13.119Z,94351.77
2018-11-06T06:40:42.347Z,94355.98
2018-11-06T06:43:11.498Z,94350.20
2018-11-06T06:45:40.690Z,94354.25
2018-11-06T06:48:09.878Z,94362.77
2018-11-06T06:50:39.064Z,94362.32
2018-11-06T06:53:08.482Z,94357.46
2018-11-06T06:55:37.654Z,94358.70
2018-11-06T06:58:06.818Z,94361.43
2018-11-06T07:00:36.006Z,94369.82
2018-11-06T07:03:05.322Z,94366.30
2018-11-06T07:05:34.506Z,94372.28
2018-11-06T07:08:03.686Z,94360.80
2018-11-06T07:10:32.891Z,94364.11
2018-11-06T07:13:02.201Z,94356.04
2018-11-06T07:15:31.287Z,94344.83
2018-11-06T07:18:00.471Z,94347.36
2018-11-06T07:20:29.668Z,94346.66
2018-11-06T07:22:58.847Z,94345.91
2018-11-06T07:25:28.051Z,94344.95
2018-11-06T07:27:57.226Z,94335.53
2018-11-06T07:30:26.403Z,94329.48
2018-11-06T07:32:55.586Z,94332.36
2018-11-06T07:35:24.871Z,94316.59
2018-11-06T07:37:53.952Z,94320.00
2018-11-06T07:40:23.171Z,94326.16
2018-11-06T07:42:52.375Z,94314.05
2018-11-06T07:45:22.343Z,94317.26
2018-11-06T07:47:51.506Z,94315.22
2018-11-06T07:50:20.750Z,94316.62
2018-11-06T07:52:49.963Z,94306.83
2018-11-06T07:55:19.609Z,94310.78
2018-11-06T07:57:48.806Z,94307.55
2018-11-06T08:00:26.476Z,94306.94
2018-11-06T08:02:55.674Z,94311.97
2018-11-06T08:05:24.869Z,94304.08
2018-11-06T08:07:54.050Z,94298.97
2018-11-06T08:10:24.497Z,94284.92
2018-11-06T08:12:54.291Z,94283.81
2018-11-06T08:15:23.509Z,94275.97
2018-11-06T08:17:52.713Z,94284.23
2018-11-06T08:20:21.948Z,94284.72
2018-11-06T08:22:51.144Z,94279.66
2018-11-06T08:25:20.335Z,94279.05
2018-11-06T08:27:49.544Z,94282.97
2018-11-06T08:30:18.726Z,94277.34
2018-11-06T08:32:48.185Z,94272.47
2018-11-06T08:35:18.067Z,94279.53
2018-11-06T08:37:47.256Z,94269.66
2018-11-06T08:40:17.438Z,94267.27
2018-11-06T08:42:46.618Z,94265.80
2018-11-06T08:45:16.413Z,94272.95
2018-11-06T08:47:46.010Z,94274.77
2018-11-06T08:50:16.501Z,94272.83
2018-11-06T08:52:45.719Z,94262.83
2018-11-06T08:55:15.734Z,94265.88
2018-11-06T08:57:45.335Z,94267.85
2018-11-06T09:00:17.147Z,94257.17
2018-11-06T09:02:47.291Z,94260.41
2018-11-06T09:05:17.162Z,94265.64
2018-11-06T09:07:46.392Z,94269.83
2018-11-06T09:10:16.300Z,94267.40
2018-11-06T09:12:45.483Z,94256.84
2018-11-06T09:15:15.573Z,94262.16
2018-11-06T09:17:44.782Z,94263.52
2018-11-06T09:20:18.067Z,94259.13
2018-11-06T09:22:47.268Z,94265.09
2018-11-06T09:25:17.805Z,94265.77
2018-11-06T09:27:47.253Z,94258.88
2018-11-06T09:30:17.539Z,94260.78
2018-11-06T09:32:46.734Z,94267.45
2018-11-06T09:35:16.167Z,94265.66
2018-11-06T09:37:45.606Z,94272.86
2018-11-06T09:40:16.168Z,94271.99
2018-11-06T09:42:45.372Z,94262.52
2018-11-06T09:45:14.875Z,94261.52
2018-11-06T09:47:44.023Z,94253.61
2018-11-06T09:50:14.691Z,94254.77
2018-11-06T09:52:44.661Z,94251.23
2018-11-06T09:55:14.637Z,94250.93
2018-11-06T09:57:43.909Z,94249.94
2018-11-06T10:00:15.388Z,94251.69
2018-11-06T10:02:44.539Z,94242.81
2018-11-06T10:05:14.278Z,94245.53
2018-11-06T10:07:43.511Z,94246.52
2018-11-06T10:10:14.730Z,94242.30
2018-11-06T10:12:44.182Z,94242.65
2018-11-06T10:15:15.866Z,94235.95
2018-11-06T10:17:46.182Z,94233.88
2018-11-06T10:20:16.407Z,94239.00
2018-11-06T10:22:45.610Z,94234.09
2018-11-06T10:25:14.811Z,94239.12
2018-11-06T10:27:44.027Z,94238.46
2018-11-06T10:30:15.729Z,94233.92
2018-11-06T10:32:44.987Z,94233.20
2018-11-06T10:35:14.171Z,94224.68
2018-11-06T10:37:43.367Z,94229.33
2018-11-06T10:40:16.217Z,94223.98
2018-11-06T10:42:46.011Z,94220.53
2018-11-06T10:45:15.239Z,94212.10
2018-11-06T10:47:44.475Z,94212.39
2018-11-06T10:50:14.372Z,94209.98
2018-11-06T10:52:43.971Z,94203.53
2018-11-06T10:55:13.152Z,94202.98
2018-11-06T10:57:42.690Z,94197.87
2018-11-06T11:00:18.638Z,94192.37
2018-11-06T11:03:01.865Z,94186.05
2018-11-06T11:05:31.303Z,94182.95
2018-11-06T11:08:00.494Z,94184.76
2018-11-06T11:10:29.698Z,94181.60
2018-11-06T11:12:58.925Z,94182.84
2018-11-06T11:15:28.134Z,94171.81
2018-11-06T11:17:57.318Z,94172.63
2018-11-06T11:20:26.540Z,94163.64
2018-11-06T11:22:55.737Z,94160.22
2018-11-06T11:25:24.949Z,94160.08
2018-11-06T11:27:54.122Z,94156.17
2018-11-06T11:30:23.302Z,94158.59
2018-11-06T11:32:52.742Z,94151.40
2018-11-06T11:35:21.926Z,94144.43
2018-11-06T11:37:51.128Z,94142.55
2018-11-06T11:40:20.293Z,94141.42
2018-11-06T11:42:49.483Z,94134.66
2018-11-06T11:45:18.748Z,94130.94
2018-11-06T11:47:47.946Z,94135.27
2018-11-06T11:50:17.418Z,94133.20
2018-11-06T11:52:46.623Z,94135.91
2018-11-06T11:55:15.848Z,94131.17
2018-11-06T11:57:45.913Z,94128.41
2018-11-06T12:00:18.369Z,94128.75
2018-11-06T12:02:47.562Z,94133.31
2018-11-06T12:05:16.759Z,94121.32
2018-11-06T12:07:45.969Z,94114.30
2018-11-06T12:10:15.170Z,94118.47
2018-11-06T12:12:44.380Z,94119.75
2018-11-06T12:15:15.730Z,94124.33
2018-11-06T12:17:45.743Z,94121.28
2018-11-06T12:20:15.468Z,94110.23
2018-11-06T12:22:44.671Z,94106.65
2018-11-06T12:25:14.399Z,94105.04
2018-11-06T12:27:43.426Z,94107.02
2018-11-06T12:30:14.441Z,94111.30
2018-11-06T12:32:43.715Z,94110.30
2018-11-06T12:35:13.532Z,94112.77
2018-11-06T12:37:42.746Z,94106.59
2018-11-06T12:40:12.839Z,94103.16
2018-11-06T12:42:42.660Z,94093.73
2018-11-06T12:45:13.118Z,94105.97
2018-11-06T12:47:42.560Z,94102.89
2018-11-06T12:50:11.823Z,94100.36
2018-11-06T12:52:41.363Z,94098.38
2018-11-06T12:55:12.500Z,94097.14
2018-11-06T12:57:41.695Z,94086.25
2018-11-06T13:03:01.675Z,94086.27
2018-11-06T13:05:30.894Z,94086.39
2018-11-06T13:08:00.082Z,94088.38
2018-11-06T13:10:29.264Z,94085.13
2018-11-06T13:12:58.470Z,94084.63
2018-11-06T13:15:27.738Z,94079.89
2018-11-06T13:17:56.882Z,94076.17
2018-11-06T13:20:26.056Z,94078.41
2018-11-06T13:22:55.259Z,94074.45
2018-11-06T13:25:24.509Z,94075.65
2018-11-06T13:27:53.680Z,94073.55
2018-11-06T13:30:22.867Z,94070.98
2018-11-06T13:32:52.080Z,94069.34
2018-11-06T13:35:21.287Z,94069.83
2018-11-06T13:37:50.502Z,94069.63
2018-11-06T13:40:19.781Z,94067.26
2018-11-06T13:42:49.093Z,94070.20
2018-11-06T13:45:21.004Z,94074.86
2018-11-06T13:47:50.070Z,94072.86
2018-11-06T13:50:19.463Z,94066.55
2018-11-06T13:52:48.759Z,94055.79
2018-11-06T13:55:18.317Z,94060.53
2018-11-06T13:57:47.929Z,94059.50
2018-11-06T14:00:19.446Z,94065.12
2018-11-06T14:02:48.634Z,94067.05
2018-11-06T14:05:18.088Z,94070.95
2018-11-06T14:07:47.286Z,94064.69
2018-11-06T14:10:16.479Z,94062.47
2018-11-06T14:12:45.886Z,94069.11
2018-11-06T14:15:15.084Z,94064.95
2018-11-06T14:17:44.282Z,94082.84
2018-11-06T14:20:14.688Z,94080.72
2018-11-06T14:22:44.220Z,94085.83
2018-11-06T14:25:14.207Z,94091.69
2018-11-06T14:27:43.506Z,94096.37
2018-11-06T14:30:15.331Z,94095.19
2018-11-06T14:32:44.790Z,94097.45
2018-11-06T14:35:15.051Z,94099.47
2018-11-06T14:37:44.710Z,94098.64
2018-11-06T14:40:14.443Z,94094.84
2018-11-06T14:42:44.338Z,94102.78
2018-11-06T14:45:14.699Z,94094.41
2018-11-06T14:47:43.983Z,94098.16
2018-11-06T14:50:13.334Z,94099.50
2018-11-06T14:52:42.535Z,94094.83
2018-11-06T14:55:13.133Z,94096.23
2018-11-06T14:57:42.332Z,94098.02
2018-11-06T15:00:14.861Z,94096.05
2018-11-06T15:02:45.554Z,94102.03
2018-11-06T15:05:15.106Z,94106.20
2018-11-06T15:07:44.694Z,94103.93
2018-11-06T15:10:13.899Z,94103.84
2018-11-06T15:15:26.767Z,94106.33
2018-11-06T15:17:55.972Z,94102.28
2018-11-06T15:20:25.158Z,94100.55
2018-11-06T15:22:54.354Z,94099.55
2018-11-06T15:25:23.563Z,94103.05
2018-11-06T15:27:52.762Z,94103.84
2018-11-06T15:30:21.962Z,94096.47
2018-11-06T15:32:51.167Z,94107.94
2018-11-06T15:35:21.263Z,94108.87
2018-11-06T15:37:50.483Z,94111.23
2018-11-06T15:40:20.548Z,94116.95
2018-11-06T15:42:49.767Z,94112.78
2018-11-06T15:45:19.704Z,94114.43
2018-11-06T15:47:49.346Z,94123.14
2018-11-06T15:50:20.594Z,94121.94
2018-11-06T15:52:50.551Z,94122.78
2018-11-06T15:55:19.751Z,94131.98
2018-11-06T15:57:48.943Z,94131.64
2018-11-06T16:00:20.596Z,94135.37
2018-11-06T16:02:49.913Z,94135.98
2018-11-06T16:05:19.118Z,94136.24
2018-11-06T16:07:48.791Z,94133.64
2018-11-06T16:10:20.305Z,94144.97
2018-11-06T16:12:49.517Z,94142.56
2018-11-06T16:15:18.741Z,94153.10
2018-11-06T16:17:48.406Z,94150.28
2018-11-06T16:20:18.816Z,94150.05
2018-11-06T16:22:48.096Z,94147.49
2018-11-06T16:25:18.177Z,94151.75
2018-11-06T16:27:47.593Z,94154.55
2018-11-06T16:30:17.979Z,94154.89
2018-11-06T16:32:47.231Z,94160.48
2018-11-06T16:35:17.563Z,94166.38
2018-11-06T16:37:47.056Z,94158.69
2018-11-06T16:40:16.719Z,94156.03
2018-11-06T16:42:46.554Z,94155.69
2018-11-06T16:45:18.818Z,94151.84
2018-11-06T16:47:48.922Z,94161.31
2018-11-06T16:50:18.667Z,94159.92
2018-11-06T16:52:47.882Z,94164.78
2018-11-06T16:55:17.641Z,94173.16
2018-11-06T16:57:47.435Z,94170.48
2018-11-06T17:00:19.611Z,94169.18
2018-11-06T17:02:48.625Z,94168.47
2018-11-06T17:05:17.847Z,94175.86
2018-11-06T17:07:47.364Z,94167.30
2018-11-06T17:10:17.406Z,94174.79
2018-11-06T17:12:46.603Z,94166.16
2018-11-06T17:15:19.234Z,94176.19
2018-11-06T17:17:49.147Z,94171.77
2018-11-06T17:20:18.682Z,94170.02
2018-11-06T17:22:47.950Z,94173.16
2018-11-06T17:25:18.310Z,94177.20
2018-11-06T17:27:47.524Z,94176.00
2018-11-06T17:30:17.736Z,94175.78
2018-11-06T17:32:46.975Z,94184.36
2018-11-06T17:35:17.512Z,94185.48
2018-11-06T17:37:46.864Z,94191.95
2018-11-06T17:40:17.332Z,94191.06
2018-11-06T17:42:46.502Z,94191.66
2018-11-06T17:45:17.975Z,94192.34
2018-11-06T17:47:47.107Z,94191.83
2018-11-06T17:50:17.824Z,94199.02
2018-11-06T17:52:47.203Z,94198.56
2018-11-06T17:55:18.662Z,94204.83
2018-11-06T17:57:47.814Z,94208.95
2018-11-06T18:00:21.904Z,94214.25
2018-11-06T18:02:51.123Z,94217.33
2018-11-06T18:05:21.830Z,94212.64
2018-11-06T18:07:51.013Z,94210.92
2018-11-06T18:10:20.907Z,94213.11
2018-11-06T18:12:50.159Z,94212.94
2018-11-06T18:15:19.337Z,94219.06
2018-11-06T18:17:49.138Z,94211.91
2018-11-06T18:20:18.199Z,94224.64
2018-11-06T18:22:47.458Z,94232.42
2018-11-06T18:25:16.840Z,94235.25
2018-11-06T18:27:45.982Z,94232.31
2018-11-06T18:30:16.976Z,94223.39
2018-11-06T18:32:46.099Z,94225.73
2018-11-06T18:35:17.169Z,94230.30
2018-11-06T18:37:46.745Z,94231.81
2018-11-06T18:40:18.098Z,94243.38
2018-11-06T18:42:48.143Z,94246.51
2018-11-06T18:45:17.347Z,94243.62
2018-11-06T18:47:46.589Z,94234.95
2018-11-06T18:50:16.779Z,94235.53
2018-11-06T18:52:47.097Z,94237.38
2018-11-06T18:55:16.410Z,94240.45
2018-11-06T18:57:46.897Z,94239.23
2018-11-06T19:00:20.263Z,94238.52
2018-11-06T19:02:51.102Z,94246.71
2018-11-06T19:05:21.176Z,94243.97
2018-11-06T19:07:50.372Z,94246.91
2018-11-06T19:10:19.804Z,94243.40
2018-11-06T19:12:50.059Z,94241.16
2018-11-06T19:15:21.442Z,94238.72
2018-11-06T19:17:50.971Z,94242.64
2018-11-06T19:20:20.227Z,94252.30
2018-11-06T19:22:49.466Z,94261.10
2018-11-06T19:25:18.667Z,94261.67
2018-11-06T19:27:47.866Z,94264.50
2018-11-06T19:30:18.285Z,94268.27
2018-11-06T19:32:47.876Z,94273.92
2018-11-06T19:35:17.091Z,94273.38
2018-11-06T19:37:46.263Z,94279.18
2018-11-06T19:40:16.617Z,94297.15
2018-11-06T19:42:46.618Z,94316.87
2018-11-06T19:45:16.021Z,94314.21
2018-11-06T19:47:45.307Z,94324.31
2018-11-06T19:50:15.935Z,94333.09
2018-11-06T19:52:45.142Z,94332.64
2018-11-06T19:55:15.347Z,94339.39
2018-11-06T19:57:44.647Z,94343.23
2018-11-06T20:00:17.738Z,94347.70
2018-11-06T20:02:48.061Z,94343.02
2018-11-06T20:05:17.531Z,94339.74
2018-11-06T20:07:47.657Z,94346.47
2018-11-06T20:10:19.185Z,94357.81
2018-11-06T20:12:49.374Z,94358.96
2018-11-06T20:15:18.655Z,94357.20
2018-11-06T20:17:47.984Z,94360.14
2018-11-06T20:20:24.073Z,94357.72
2018-11-06T20:22:54.051Z,94363.81
2018-11-06T20:25:23.347Z,94365.21
2018-11-06T20:27:52.578Z,94363.63
2018-11-06T20:30:23.061Z,94368.17
2018-11-06T20:32:52.296Z,94371.38
2018-11-06T20:35:21.884Z,94385.72
2018-11-06T20:37:51.118Z,94389.63
2018-11-06T20:40:21.740Z,94390.28
2018-11-06T20:42:51.053Z,94398.44
2018-11-06T20:45:20.643Z,94395.38
2018-11-06T20:47:50.031Z,94395.83
2018-11-06T20:50:21.953Z,94405.81
2018-11-06T20:52:51.261Z,94410.25
2018-11-06T20:55:20.595Z,94418.05
2018-11-06T20:57:49.755Z,94418.55
2018-11-06T21:00:25.256Z,94424.72
2018-11-06T21:02:55.300Z,94426.38
2018-11-06T21:05:24.559Z,94422.29
2018-11-06T21:07:53.811Z,94424.24
2018-11-06T21:10:24.411Z,94427.36
2018-11-06T21:12:53.669Z,94432.08
2018-11-06T21:15:22.851Z,94443.98
2018-11-06T21:17:52.120Z,94447.57
2018-11-06T21:20:21.415Z,94454.55
2018-11-06T21:22:50.546Z,94461.72
2018-11-06T21:25:19.749Z,94462.36
2018-11-06T21:27:48.947Z,94473.59
2018-11-06T21:30:19.294Z,94469.41
2018-11-06T21:32:49.726Z,94465.51
2018-11-06T21:35:19.024Z,94462.59
2018-11-06T21:37:48.252Z,94470.38
2018-11-06T21:40:18.839Z,94472.53
2018-11-06T21:42:48.405Z,94480.81
2018-11-06T21:45:18.025Z,94478.58
2018-11-06T21:47:48.111Z,94479.58
2018-11-06T21:50:17.715Z,94477.61
2018-11-06T21:52:46.983Z,94489.51
2018-11-06T21:55:19.797Z,94492.44
2018-11-06T21:57:48.986Z,94502.12
2018-11-06T22:00:20.386Z,94504.27
2018-11-06T22:02:49.671Z,94501.84
2018-11-06T22:05:20.095Z,94505.92
2018-11-06T22:07:49.683Z,94513.91
2018-11-06T22:10:20.048Z,94520.09
2018-11-06T22:12:49.297Z,94520.42
2018-11-06T22:15:19.288Z,94530.53
2018-11-06T22:17:48.475Z,94523.53
2018-11-06T22:20:18.911Z,94533.14
2018-11-06T22:22:48.511Z,94540.09
2018-11-06T22:25:17.702Z,94547.25
2018-11-06T22:27:46.901Z,94550.02
2018-11-06T22:30:16.762Z,94554.07
2018-11-06T22:32:46.568Z,94555.84
2018-11-06T22:35:16.853Z,94557.93
2018-11-06T22:37:46.035Z,94566.40
2018-11-06T22:40:16.342Z,94561.22
2018-11-06T22:42:45.750Z,94567.02
2018-11-06T22:45:16.026Z,94562.44
2018-11-06T22:47:45.230Z,94566.89
2018-11-06T22:50:15.578Z,94572.86
2018-11-06T22:52:45.681Z,94574.02
2018-11-06T22:55:14.924Z,94576.81
2018-11-06T22:57:44.385Z,94576.03
2018-11-06T23:00:23.536Z,94583.08
2018-11-06T23:02:52.738Z,94593.36
2018-11-06T23:05:21.911Z,94586.86
2018-11-06T23:07:56.319Z,94584.90
2018-11-06T23:10:25.565Z,94581.87
2018-11-06T23:12:54.687Z,94586.52
2018-11-06T23:15:23.871Z,94581.58
2018-11-06T23:17:53.050Z,94583.34
2018-11-06T23:20:22.231Z,94583.79
2018-11-06T23:22:51.435Z,94590.77
2018-11-06T23:25:20.616Z,94590.72
2018-11-06T23:27:49.807Z,94598.28
2018-11-06T23:30:19.004Z,94602.30
2018-11-06T23:32:48.182Z,94601.17
2018-11-06T23:35:18.386Z,94597.96
2018-11-06T23:37:47.586Z,94599.42
2018-11-06T23:40:16.786Z,94596.94
2018-11-06T23:42:45.962Z,94603.80
2018-11-06T23:45:15.142Z,94604.09
2018-11-06T23:47:44.368Z,94606.41
2018-11-06T23:50:13.560Z,94608.83
2018-11-06T23:52:42.759Z,94609.70
2018-11-06T23:55:11.989Z,94608.04
2018-11-06T23:57:41.163Z,94606.05
